Terminal Aerodrome Forecast
Issued by NWS Cleveland, OH

Home | Current Version | Previous Version | Text Only | Print | Product List | Glossary On
Versions: 1 2 3 4 5 6 7 8 9 10 11 12 13 14 15 16 17 18 19 20
398
FTUS41 KCLE 111740
TAFYNG
TAF
KYNG 111740Z 1118/1218 30012G20KT 4SM -SHSN OVC025
      TEMPO 1118/1122 1SM -SHSN OVC018
     FM112300 28007KT P6SM OVC035
     FM120200 23005KT P6SM SCT035 BKN250
     FM121100 21005KT P6SM BKN100
     FM121500 23012G20KT P6SM SCT035 OVC100=

USA.gov is the U.S. government's official web portal to all federal, state and local government web resources and services.